sensor_id;sensor_type;location;lat;lon;timestamp;P1;durP1;ratioP1;P2;durP2;ratioP2
36599;SDS011;35385;55.668;37.508;2023-02-03T00:00:58;43.55;;;24.67;;
36599;SDS011;35385;55.668;37.508;2023-02-03T00:01:59;44.23;;;25.33;;
36599;SDS011;35385;55.668;37.508;2023-02-03T00:02:59;43.40;;;25.37;;
36599;SDS011;35385;55.668;37.508;2023-02-03T00:04:00;42.67;;;24.73;;
36599;SDS011;35385;55.668;37.508;2023-02-03T00:05:00;45.03;;;25.10;;
36599;SDS011;35385;55.668;37.508;2023-02-03T00:06:01;42.80;;;24.63;;
36599;SDS011;35385;55.668;37.508;2023-02-03T00:07:03;39.95;;;24.52;;
36599;SDS011;35385;55.668;37.508;2023-02-03T00:08:04;43.47;;;25.43;;
36599;SDS011;35385;55.668;37.508;2023-02-03T00:09:06;42.63;;;24.98;;
36599;SDS011;35385;55.668;37.508;2023-02-03T00:10:07;38.03;;;23.67;;
36599;SDS011;35385;55.668;37.508;2023-02-03T00:11:08;38.67;;;23.42;;
36599;SDS011;35385;55.668;37.508;2023-02-03T00:12:09;40.50;;;24.20;;
36599;SDS011;35385;55.668;37.508;2023-02-03T00:13:09;42.70;;;24.93;;
36599;SDS011;35385;55.668;37.508;2023-02-03T00:14:10;38.87;;;23.40;;
36599;SDS011;35385;55.668;37.508;2023-02-03T00:15:10;39.33;;;23.30;;
36599;SDS011;35385;55.668;37.508;2023-02-03T00:16:11;40.83;;;24.20;;
36599;SDS011;35385;55.668;37.508;2023-02-03T00:17:12;38.27;;;22.60;;
36599;SDS011;35385;55.668;37.508;2023-02-03T00:18:14;40.08;;;24.33;;
36599;SDS011;35385;55.668;37.508;2023-02-03T00:19:14;41.97;;;25.30;;
36599;SDS011;35385;55.668;37.508;2023-02-03T00:20:15;39.40;;;24.30;;
36599;SDS011;35385;55.668;37.508;2023-02-03T00:21:15;40.23;;;23.90;;
36599;SDS011;35385;55.668;37.508;2023-02-03T00:22:16;42.30;;;24.20;;
36599;SDS011;35385;55.668;37.508;2023-02-03T00:23:17;44.67;;;25.27;;
36599;SDS011;35385;55.668;37.508;2023-02-03T00:24:17;40.23;;;24.87;;
36599;SDS011;35385;55.668;37.508;2023-02-03T00:25:19;42.40;;;23.90;;
36599;SDS011;35385;55.668;37.508;2023-02-03T00:26:20;40.40;;;24.00;;
36599;SDS011;35385;55.668;37.508;2023-02-03T00:27:21;41.60;;;23.07;;
36599;SDS011;35385;55.668;37.508;2023-02-03T00:28:21;41.57;;;23.97;;
36599;SDS011;35385;55.668;37.508;2023-02-03T00:29:22;41.03;;;24.17;;
36599;SDS011;35385;55.668;37.508;2023-02-03T00:30:25;40.38;;;24.80;;
36599;SDS011;35385;55.668;37.508;2023-02-03T00:31:26;40.63;;;23.77;;
36599;SDS011;35385;55.668;37.508;2023-02-03T00:32:26;42.43;;;24.60;;
36599;SDS011;35385;55.668;37.508;2023-02-03T00:33:27;40.50;;;23.77;;
36599;SDS011;35385;55.668;37.508;2023-02-03T00:34:28;43.07;;;25.07;;
36599;SDS011;35385;55.668;37.508;2023-02-03T00:36:30;43.42;;;24.02;;
36599;SDS011;35385;55.668;37.508;2023-02-03T00:37:30;40.70;;;23.63;;
36599;SDS011;35385;55.668;37.508;2023-02-03T00:38:31;42.27;;;24.20;;
36599;SDS011;35385;55.668;37.508;2023-02-03T00:39:31;43.93;;;25.03;;
36599;SDS011;35385;55.668;37.508;2023-02-03T00:40:32;41.20;;;24.27;;
36599;SDS011;35385;55.668;37.508;2023-02-03T00:41:32;45.03;;;25.50;;
36599;SDS011;35385;55.668;37.508;2023-02-03T00:42:33;41.07;;;24.07;;
36599;SDS011;35385;55.668;37.508;2023-02-03T00:44:35;38.15;;;22.45;;
36599;SDS011;35385;55.668;37.508;2023-02-03T00:45:35;40.27;;;23.47;;
36599;SDS011;35385;55.668;37.508;2023-02-03T00:46:36;44.17;;;26.00;;
36599;SDS011;35385;55.668;37.508;2023-02-03T00:47:37;45.78;;;26.00;;
36599;SDS011;35385;55.668;37.508;2023-02-03T00:48:37;47.07;;;25.83;;
36599;SDS011;35385;55.668;37.508;2023-02-03T00:49:38;44.03;;;25.57;;
36599;SDS011;35385;55.668;37.508;2023-02-03T00:50:39;44.63;;;25.10;;
36599;SDS011;35385;55.668;37.508;2023-02-03T00:51:39;42.45;;;24.80;;
36599;SDS011;35385;55.668;37.508;2023-02-03T00:52:40;41.63;;;23.43;;
36599;SDS011;35385;55.668;37.508;2023-02-03T00:53:40;41.63;;;24.77;;
36599;SDS011;35385;55.668;37.508;2023-02-03T00:54:41;41.70;;;24.17;;
36599;SDS011;35385;55.668;37.508;2023-02-03T00:55:42;44.03;;;24.20;;
36599;SDS011;35385;55.668;37.508;2023-02-03T00:56:43;48.63;;;25.02;;
36599;SDS011;35385;55.668;37.508;2023-02-03T00:57:43;43.40;;;25.67;;
36599;SDS011;35385;55.668;37.508;2023-02-03T00:58:44;44.43;;;24.53;;
36599;SDS011;35385;55.668;37.508;2023-02-03T00:59:45;41.77;;;25.37;;
36599;SDS011;35385;55.668;37.508;2023-02-03T01:00:45;45.33;;;25.63;;
36599;SDS011;35385;55.668;37.508;2023-02-03T01:01:46;45.47;;;25.23;;
36599;SDS011;35385;55.668;37.508;2023-02-03T01:02:48;50.85;;;25.08;;
36599;SDS011;35385;55.668;37.508;2023-02-03T01:03:49;43.33;;;25.13;;
36599;SDS011;35385;55.668;37.508;2023-02-03T01:04:49;45.83;;;25.83;;
36599;SDS011;35385;55.668;37.508;2023-02-03T01:05:50;43.73;;;26.43;;
36599;SDS011;35385;55.668;37.508;2023-02-03T01:06:51;46.97;;;25.47;;
36599;SDS011;35385;55.668;37.508;2023-02-03T01:07:55;44.90;;;24.95;;
36599;SDS011;35385;55.668;37.508;2023-02-03T01:08:55;47.83;;;26.27;;
36599;SDS011;35385;55.668;37.508;2023-02-03T01:09:56;45.77;;;25.80;;
36599;SDS011;35385;55.668;37.508;2023-02-03T01:10:56;46.23;;;24.53;;
36599;SDS011;35385;55.668;37.508;2023-02-03T01:11:57;48.00;;;26.17;;
36599;SDS011;35385;55.668;37.508;2023-02-03T01:12:57;46.97;;;26.60;;
36599;SDS011;35385;55.668;37.508;2023-02-03T01:13:58;45.60;;;26.00;;
36599;SDS011;35385;55.668;37.508;2023-02-03T01:15:00;50.28;;;26.15;;
36599;SDS011;35385;55.668;37.508;2023-02-03T01:16:08;45.65;;;25.63;;
36599;SDS011;35385;55.668;37.508;2023-02-03T01:17:10;48.53;;;25.27;;
36599;SDS011;35385;55.668;37.508;2023-02-03T01:18:12;46.72;;;25.25;;
36599;SDS011;35385;55.668;37.508;2023-02-03T01:19:13;46.97;;;25.92;;
36599;SDS011;35385;55.668;37.508;2023-02-03T01:20:15;48.85;;;26.67;;
36599;SDS011;35385;55.668;37.508;2023-02-03T01:21:17;50.07;;;27.17;;
36599;SDS011;35385;55.668;37.508;2023-02-03T01:22:20;47.33;;;25.85;;
36599;SDS011;35385;55.668;37.508;2023-02-03T01:23:20;42.03;;;25.00;;
36599;SDS011;35385;55.668;37.508;2023-02-03T01:24:21;45.57;;;25.83;;
36599;SDS011;35385;55.668;37.508;2023-02-03T01:25:22;44.53;;;25.07;;
36599;SDS011;35385;55.668;37.508;2023-02-03T01:26:22;48.37;;;27.30;;
36599;SDS011;35385;55.668;37.508;2023-02-03T01:27:23;45.75;;;24.83;;
36599;SDS011;35385;55.668;37.508;2023-02-03T01:28:24;45.77;;;25.37;;
36599;SDS011;35385;55.668;37.508;2023-02-03T01:29:24;45.80;;;25.57;;
36599;SDS011;35385;55.668;37.508;2023-02-03T01:30:27;47.35;;;26.08;;
36599;SDS011;35385;55.668;37.508;2023-02-03T01:31:29;49.83;;;27.47;;
36599;SDS011;35385;55.668;37.508;2023-02-03T01:32:35;46.47;;;25.75;;
36599;SDS011;35385;55.668;37.508;2023-02-03T01:33:36;47.87;;;25.17;;
36599;SDS011;35385;55.668;37.508;2023-02-03T01:34:39;49.63;;;25.95;;
36599;SDS011;35385;55.668;37.508;2023-02-03T01:35:40;46.60;;;25.03;;
36599;SDS011;35385;55.668;37.508;2023-02-03T01:36:40;45.10;;;25.07;;
36599;SDS011;35385;55.668;37.508;2023-02-03T01:37:41;44.27;;;25.43;;
36599;SDS011;35385;55.668;37.508;2023-02-03T01:38:42;47.30;;;26.10;;
36599;SDS011;35385;55.668;37.508;2023-02-03T01:40:44;49.45;;;26.10;;
36599;SDS011;35385;55.668;37.508;2023-02-03T01:41:44;45.40;;;24.73;;
36599;SDS011;35385;55.668;37.508;2023-02-03T01:42:45;46.73;;;26.60;;
36599;SDS011;35385;55.668;37.508;2023-02-03T01:45:35;43.65;;;25.50;;
36599;SDS011;35385;55.668;37.508;2023-02-03T01:46:38;49.08;;;26.65;;
36599;SDS011;35385;55.668;37.508;2023-02-03T01:47:47;45.40;;;26.17;;
36599;SDS011;35385;55.668;37.508;2023-02-03T01:48:53;45.90;;;26.17;;
36599;SDS011;35385;55.668;37.508;2023-02-03T01:51:21;53.47;;;27.20;;
36599;SDS011;35385;55.668;37.508;2023-02-03T01:52:22;42.08;;;24.95;;
36599;SDS011;35385;55.668;37.508;2023-02-03T01:53:26;45.97;;;25.83;;
36599;SDS011;35385;55.668;37.508;2023-02-03T01:54:28;44.63;;;25.17;;
36599;SDS011;35385;55.668;37.508;2023-02-03T01:55:33;45.97;;;24.48;;
36599;SDS011;35385;55.668;37.508;2023-02-03T01:56:41;48.55;;;25.67;;
36599;SDS011;35385;55.668;37.508;2023-02-03T01:57:49;48.50;;;25.58;;
36599;SDS011;35385;55.668;37.508;2023-02-03T01:58:53;49.40;;;25.95;;
36599;SDS011;35385;55.668;37.508;2023-02-03T01:59:54;53.53;;;28.13;;
36599;SDS011;35385;55.668;37.508;2023-02-03T02:00:58;47.67;;;26.23;;
36599;SDS011;35385;55.668;37.508;2023-02-03T02:02:02;51.55;;;25.92;;
36599;SDS011;35385;55.668;37.508;2023-02-03T02:03:05;47.35;;;25.42;;
36599;SDS011;35385;55.668;37.508;2023-02-03T02:04:07;45.30;;;25.38;;
36599;SDS011;35385;55.668;37.508;2023-02-03T02:06:16;47.83;;;24.88;;
36599;SDS011;35385;55.668;37.508;2023-02-03T02:07:17;45.73;;;25.23;;
36599;SDS011;35385;55.668;37.508;2023-02-03T02:08:17;47.50;;;24.97;;
36599;SDS011;35385;55.668;37.508;2023-02-03T02:09:21;50.95;;;26.60;;
36599;SDS011;35385;55.668;37.508;2023-02-03T02:11:23;46.33;;;24.60;;
36599;SDS011;35385;55.668;37.508;2023-02-03T02:12:24;53.33;;;26.77;;
36599;SDS011;35385;55.668;37.508;2023-02-03T02:13:25;47.97;;;25.47;;
36599;SDS011;35385;55.668;37.508;2023-02-03T02:14:28;46.78;;;25.60;;
36599;SDS011;35385;55.668;37.508;2023-02-03T02:15:39;47.50;;;26.90;;
36599;SDS011;35385;55.668;37.508;2023-02-03T02:22:21;46.22;;;25.02;;
36599;SDS011;35385;55.668;37.508;2023-02-03T02:25:40;47.35;;;26.05;;
36599;SDS011;35385;55.668;37.508;2023-02-03T02:26:51;48.35;;;24.50;;
36599;SDS011;35385;55.668;37.508;2023-02-03T02:32:21;51.85;;;26.75;;
36599;SDS011;35385;55.668;37.508;2023-02-03T02:35:12;47.20;;;25.65;;
36599;SDS011;35385;55.668;37.508;2023-02-03T02:41:55;48.22;;;24.90;;
36599;SDS011;35385;55.668;37.508;2023-02-03T02:43:03;44.25;;;25.30;;
36599;SDS011;35385;55.668;37.508;2023-02-03T02:44:17;46.00;;;25.05;;
36599;SDS011;35385;55.668;37.508;2023-02-03T02:45:39;46.13;;;25.95;;
36599;SDS011;35385;55.668;37.508;2023-02-03T02:46:46;44.47;;;25.42;;
36599;SDS011;35385;55.668;37.508;2023-02-03T02:47:54;48.97;;;25.98;;
36599;SDS011;35385;55.668;37.508;2023-02-03T02:49:00;48.75;;;26.08;;
36599;SDS011;35385;55.668;37.508;2023-02-03T02:50:21;50.67;;;26.40;;
36599;SDS011;35385;55.668;37.508;2023-02-03T02:51:25;49.00;;;25.77;;
36599;SDS011;35385;55.668;37.508;2023-02-03T02:52:29;46.70;;;25.40;;
36599;SDS011;35385;55.668;37.508;2023-02-03T02:53:32;44.03;;;25.08;;
36599;SDS011;35385;55.668;37.508;2023-02-03T02:54:38;43.55;;;23.50;;
36599;SDS011;35385;55.668;37.508;2023-02-03T02:55:41;44.58;;;24.30;;
36599;SDS011;35385;55.668;37.508;2023-02-03T02:56:44;43.30;;;24.85;;
36599;SDS011;35385;55.668;37.508;2023-02-03T02:57:50;47.70;;;25.30;;
36599;SDS011;35385;55.668;37.508;2023-02-03T02:58:54;52.97;;;25.70;;
36599;SDS011;35385;55.668;37.508;2023-02-03T02:59:58;47.80;;;25.95;;
36599;SDS011;35385;55.668;37.508;2023-02-03T03:00:59;45.93;;;25.87;;
36599;SDS011;35385;55.668;37.508;2023-02-03T03:02:01;48.83;;;24.95;;
36599;SDS011;35385;55.668;37.508;2023-02-03T03:03:10;46.28;;;25.13;;
36599;SDS011;35385;55.668;37.508;2023-02-03T03:04:15;45.10;;;23.83;;
36599;SDS011;35385;55.668;37.508;2023-02-03T03:05:23;42.88;;;24.75;;
36599;SDS011;35385;55.668;37.508;2023-02-03T03:06:34;40.47;;;23.05;;
36599;SDS011;35385;55.668;37.508;2023-02-03T03:07:44;48.53;;;25.27;;
36599;SDS011;35385;55.668;37.508;2023-02-03T03:08:54;46.90;;;24.20;;
36599;SDS011;35385;55.668;37.508;2023-02-03T03:10:02;46.17;;;24.48;;
36599;SDS011;35385;55.668;37.508;2023-02-03T03:11:06;46.20;;;24.73;;
36599;SDS011;35385;55.668;37.508;2023-02-03T03:12:12;43.30;;;24.90;;
36599;SDS011;35385;55.668;37.508;2023-02-03T03:13:21;44.25;;;24.52;;
36599;SDS011;35385;55.668;37.508;2023-02-03T03:14:27;47.25;;;24.75;;
36599;SDS011;35385;55.668;37.508;2023-02-03T03:15:31;45.28;;;24.90;;
36599;SDS011;35385;55.668;37.508;2023-02-03T03:16:33;46.03;;;24.52;;
36599;SDS011;35385;55.668;37.508;2023-02-03T03:17:43;47.78;;;24.90;;
36599;SDS011;35385;55.668;37.508;2023-02-03T03:18:58;45.55;;;23.98;;
36599;SDS011;35385;55.668;37.508;2023-02-03T03:20:05;43.75;;;24.52;;
36599;SDS011;35385;55.668;37.508;2023-02-03T03:21:12;42.75;;;23.38;;
36599;SDS011;35385;55.668;37.508;2023-02-03T03:22:19;41.50;;;24.27;;
36599;SDS011;35385;55.668;37.508;2023-02-03T03:23:26;48.05;;;26.13;;
36599;SDS011;35385;55.668;37.508;2023-02-03T03:24:42;46.22;;;24.05;;
36599;SDS011;35385;55.668;37.508;2023-02-03T03:25:52;41.92;;;24.05;;
36599;SDS011;35385;55.668;37.508;2023-02-03T03:27:01;44.35;;;24.25;;
36599;SDS011;35385;55.668;37.508;2023-02-03T03:28:08;44.88;;;24.42;;
36599;SDS011;35385;55.668;37.508;2023-02-03T03:29:17;44.05;;;24.27;;
36599;SDS011;35385;55.668;37.508;2023-02-03T03:30:25;44.47;;;23.50;;
36599;SDS011;35385;55.668;37.508;2023-02-03T03:31:33;43.60;;;23.58;;
36599;SDS011;35385;55.668;37.508;2023-02-03T03:32:34;43.83;;;24.20;;
36599;SDS011;35385;55.668;37.508;2023-02-03T03:33:34;40.80;;;23.77;;
36599;SDS011;35385;55.668;37.508;2023-02-03T03:34:35;42.57;;;24.03;;
36599;SDS011;35385;55.668;37.508;2023-02-03T03:35:38;41.67;;;23.37;;
36599;SDS011;35385;55.668;37.508;2023-02-03T03:36:57;40.00;;;23.23;;
36599;SDS011;35385;55.668;37.508;2023-02-03T03:38:18;43.95;;;23.70;;
36599;SDS011;35385;55.668;37.508;2023-02-03T03:40:31;42.13;;;23.52;;
36599;SDS011;35385;55.668;37.508;2023-02-03T03:43:50;43.15;;;24.17;;
36599;SDS011;35385;55.668;37.508;2023-02-03T03:45:02;40.58;;;22.58;;
36599;SDS011;35385;55.668;37.508;2023-02-03T03:46:11;40.15;;;21.40;;
36599;SDS011;35385;55.668;37.508;2023-02-03T03:47:29;41.65;;;23.17;;
36599;SDS011;35385;55.668;37.508;2023-02-03T03:49:58;42.58;;;22.55;;
36599;SDS011;35385;55.668;37.508;2023-02-03T03:51:08;39.97;;;22.45;;
36599;SDS011;35385;55.668;37.508;2023-02-03T03:52:14;39.90;;;23.40;;
36599;SDS011;35385;55.668;37.508;2023-02-03T03:53:19;46.78;;;22.95;;
36599;SDS011;35385;55.668;37.508;2023-02-03T03:54:23;38.72;;;21.50;;
36599;SDS011;35385;55.668;37.508;2023-02-03T03:55:25;40.80;;;22.70;;
36599;SDS011;35385;55.668;37.508;2023-02-03T03:56:30;39.05;;;21.00;;
36599;SDS011;35385;55.668;37.508;2023-02-03T03:57:58;41.45;;;22.48;;
36599;SDS011;35385;55.668;37.508;2023-02-03T03:59:02;40.13;;;22.13;;
36599;SDS011;35385;55.668;37.508;2023-02-03T04:00:07;39.70;;;23.13;;
36599;SDS011;35385;55.668;37.508;2023-02-03T04:01:09;41.05;;;23.25;;
36599;SDS011;35385;55.668;37.508;2023-02-03T04:02:12;38.20;;;21.88;;
36599;SDS011;35385;55.668;37.508;2023-02-03T04:03:18;41.08;;;22.35;;
36599;SDS011;35385;55.668;37.508;2023-02-03T04:04:22;37.33;;;21.92;;
36599;SDS011;35385;55.668;37.508;2023-02-03T04:05:25;36.05;;;20.88;;
36599;SDS011;35385;55.668;37.508;2023-02-03T04:06:26;39.53;;;22.20;;
36599;SDS011;35385;55.668;37.508;2023-02-03T04:10:01;42.28;;;21.85;;
36599;SDS011;35385;55.668;37.508;2023-02-03T04:11:06;38.72;;;21.83;;
36599;SDS011;35385;55.668;37.508;2023-02-03T04:12:22;39.67;;;22.80;;
36599;SDS011;35385;55.668;37.508;2023-02-03T04:13:23;43.47;;;22.80;;
36599;SDS011;35385;55.668;37.508;2023-02-03T04:14:24;43.00;;;21.97;;
36599;SDS011;35385;55.668;37.508;2023-02-03T04:15:24;39.00;;;21.57;;
36599;SDS011;35385;55.668;37.508;2023-02-03T04:16:25;41.03;;;22.37;;
36599;SDS011;35385;55.668;37.508;2023-02-03T04:17:26;38.10;;;21.93;;
36599;SDS011;35385;55.668;37.508;2023-02-03T04:18:26;41.17;;;22.67;;
36599;SDS011;35385;55.668;37.508;2023-02-03T04:19:27;38.10;;;21.20;;
36599;SDS011;35385;55.668;37.508;2023-02-03T04:20:27;38.63;;;21.90;;
36599;SDS011;35385;55.668;37.508;2023-02-03T04:21:29;38.92;;;21.98;;
36599;SDS011;35385;55.668;37.508;2023-02-03T04:22:30;40.47;;;22.07;;
36599;SDS011;35385;55.668;37.508;2023-02-03T04:23:30;40.03;;;22.10;;
36599;SDS011;35385;55.668;37.508;2023-02-03T04:24:31;39.13;;;22.40;;
36599;SDS011;35385;55.668;37.508;2023-02-03T04:25:31;42.53;;;22.10;;
36599;SDS011;35385;55.668;37.508;2023-02-03T04:26:32;39.40;;;21.57;;
36599;SDS011;35385;55.668;37.508;2023-02-03T04:27:33;44.43;;;23.07;;
36599;SDS011;35385;55.668;37.508;2023-02-03T04:28:34;40.47;;;23.48;;
36599;SDS011;35385;55.668;37.508;2023-02-03T04:29:34;43.03;;;23.43;;
36599;SDS011;35385;55.668;37.508;2023-02-03T04:30:35;39.23;;;22.47;;
36599;SDS011;35385;55.668;37.508;2023-02-03T04:31:35;40.13;;;22.27;;
36599;SDS011;35385;55.668;37.508;2023-02-03T04:32:38;38.38;;;22.48;;
36599;SDS011;35385;55.668;37.508;2023-02-03T04:33:39;38.40;;;22.42;;
36599;SDS011;35385;55.668;37.508;2023-02-03T04:34:40;42.30;;;23.23;;
36599;SDS011;35385;55.668;37.508;2023-02-03T04:35:40;39.47;;;21.67;;
36599;SDS011;35385;55.668;37.508;2023-02-03T04:36:41;39.23;;;21.77;;
36599;SDS011;35385;55.668;37.508;2023-02-03T04:37:42;43.63;;;23.93;;
36599;SDS011;35385;55.668;37.508;2023-02-03T04:38:42;42.13;;;22.67;;
36599;SDS011;35385;55.668;37.508;2023-02-03T04:39:43;37.87;;;20.80;;
36599;SDS011;35385;55.668;37.508;2023-02-03T04:40:43;41.43;;;22.50;;
36599;SDS011;35385;55.668;37.508;2023-02-03T04:41:44;42.50;;;22.48;;
36599;SDS011;35385;55.668;37.508;2023-02-03T04:42:45;39.63;;;23.23;;
36599;SDS011;35385;55.668;37.508;2023-02-03T04:43:45;35.87;;;20.67;;
36599;SDS011;35385;55.668;37.508;2023-02-03T04:44:46;39.63;;;22.47;;
36599;SDS011;35385;55.668;37.508;2023-02-03T04:45:46;40.20;;;23.03;;
36599;SDS011;35385;55.668;37.508;2023-02-03T04:46:47;39.20;;;21.43;;
36599;SDS011;35385;55.668;37.508;2023-02-03T04:47:50;41.20;;;23.60;;
36599;SDS011;35385;55.668;37.508;2023-02-03T04:48:52;39.33;;;21.45;;
36599;SDS011;35385;55.668;37.508;2023-02-03T04:49:52;42.40;;;22.20;;
36599;SDS011;35385;55.668;37.508;2023-02-03T04:50:53;40.67;;;21.53;;
36599;SDS011;35385;55.668;37.508;2023-02-03T04:51:53;38.57;;;21.57;;
36599;SDS011;35385;55.668;37.508;2023-02-03T04:52:54;43.63;;;22.23;;
36599;SDS011;35385;55.668;37.508;2023-02-03T04:53:54;39.83;;;22.43;;
36599;SDS011;35385;55.668;37.508;2023-02-03T04:54:55;42.73;;;23.67;;
36599;SDS011;35385;55.668;37.508;2023-02-03T04:55:55;40.47;;;22.47;;
36599;SDS011;35385;55.668;37.508;2023-02-03T04:56:56;41.90;;;22.88;;
36599;SDS011;35385;55.668;37.508;2023-02-03T04:57:57;41.13;;;22.97;;
36599;SDS011;35385;55.668;37.508;2023-02-03T04:58:59;41.85;;;22.80;;
36599;SDS011;35385;55.668;37.508;2023-02-03T04:59:59;43.03;;;22.93;;
36599;SDS011;35385;55.668;37.508;2023-02-03T05:01:04;45.23;;;24.53;;
36599;SDS011;35385;55.668;37.508;2023-02-03T05:02:07;41.20;;;22.38;;
36599;SDS011;35385;55.668;37.508;2023-02-03T05:03:07;43.83;;;24.70;;
36599;SDS011;35385;55.668;37.508;2023-02-03T05:04:08;42.13;;;22.47;;
36599;SDS011;35385;55.668;37.508;2023-02-03T05:05:08;42.07;;;23.00;;
36599;SDS011;35385;55.668;37.508;2023-02-03T05:06:09;39.60;;;22.00;;
36599;SDS011;35385;55.668;37.508;2023-02-03T05:07:09;41.33;;;22.73;;
36599;SDS011;35385;55.668;37.508;2023-02-03T05:08:10;39.60;;;21.87;;
36599;SDS011;35385;55.668;37.508;2023-02-03T05:09:10;40.80;;;22.90;;
36599;SDS011;35385;55.668;37.508;2023-02-03T05:10:11;39.63;;;22.50;;
36599;SDS011;35385;55.668;37.508;2023-02-03T05:11:12;42.45;;;23.00;;
36599;SDS011;35385;55.668;37.508;2023-02-03T05:12:13;40.43;;;22.33;;
36599;SDS011;35385;55.668;37.508;2023-02-03T05:13:13;45.87;;;23.53;;
36599;SDS011;35385;55.668;37.508;2023-02-03T05:14:14;44.87;;;22.87;;
36599;SDS011;35385;55.668;37.508;2023-02-03T05:15:14;39.43;;;22.60;;
36599;SDS011;35385;55.668;37.508;2023-02-03T05:16:17;41.65;;;23.38;;
36599;SDS011;35385;55.668;37.508;2023-02-03T05:17:18;43.00;;;23.23;;
36599;SDS011;35385;55.668;37.508;2023-02-03T05:18:18;43.50;;;22.97;;
36599;SDS011;35385;55.668;37.508;2023-02-03T05:19:19;42.30;;;22.80;;
36599;SDS011;35385;55.668;37.508;2023-02-03T05:20:20;43.53;;;23.07;;
36599;SDS011;35385;55.668;37.508;2023-02-03T05:21:21;40.80;;;22.98;;
36599;SDS011;35385;55.668;37.508;2023-02-03T05:22:21;44.80;;;24.10;;
36599;SDS011;35385;55.668;37.508;2023-02-03T05:23:22;44.80;;;24.43;;
36599;SDS011;35385;55.668;37.508;2023-02-03T05:24:23;42.40;;;22.50;;
36599;SDS011;35385;55.668;37.508;2023-02-03T05:25:23;39.27;;;21.97;;
36599;SDS011;35385;55.668;37.508;2023-02-03T05:26:24;42.20;;;23.40;;
36599;SDS011;35385;55.668;37.508;2023-02-03T05:27:24;42.40;;;23.10;;
36599;SDS011;35385;55.668;37.508;2023-02-03T05:28:25;48.70;;;23.57;;
36599;SDS011;35385;55.668;37.508;2023-02-03T05:29:26;41.10;;;22.93;;
36599;SDS011;35385;55.668;37.508;2023-02-03T05:30:26;47.60;;;23.67;;
36599;SDS011;35385;55.668;37.508;2023-02-03T05:31:27;39.67;;;22.67;;
36599;SDS011;35385;55.668;37.508;2023-02-03T05:32:27;39.63;;;21.30;;
36599;SDS011;35385;55.668;37.508;2023-02-03T05:33:30;44.53;;;23.35;;
36599;SDS011;35385;55.668;37.508;2023-02-03T05:34:31;45.63;;;23.53;;
36599;SDS011;35385;55.668;37.508;2023-02-03T05:35:31;38.83;;;21.53;;
36599;SDS011;35385;55.668;37.508;2023-02-03T05:36:32;42.73;;;22.60;;
36599;SDS011;35385;55.668;37.508;2023-02-03T05:37:33;45.57;;;23.63;;
36599;SDS011;35385;55.668;37.508;2023-02-03T05:38:33;45.63;;;23.70;;
36599;SDS011;35385;55.668;37.508;2023-02-03T05:39:34;44.20;;;22.57;;
36599;SDS011;35385;55.668;37.508;2023-02-03T05:40:34;38.70;;;22.17;;
36599;SDS011;35385;55.668;37.508;2023-02-03T05:41:53;45.80;;;23.85;;
36599;SDS011;35385;55.668;37.508;2023-02-03T05:42:55;46.75;;;23.77;;
36599;SDS011;35385;55.668;37.508;2023-02-03T05:43:55;42.93;;;23.73;;
36599;SDS011;35385;55.668;37.508;2023-02-03T05:44:56;44.72;;;23.83;;
36599;SDS011;35385;55.668;37.508;2023-02-03T05:46:00;45.63;;;22.80;;
36599;SDS011;35385;55.668;37.508;2023-02-03T05:47:01;48.97;;;24.63;;
36599;SDS011;35385;55.668;37.508;2023-02-03T05:48:05;43.60;;;22.70;;
36599;SDS011;35385;55.668;37.508;2023-02-03T05:49:06;46.03;;;24.77;;
36599;SDS011;35385;55.668;37.508;2023-02-03T05:50:07;43.87;;;24.33;;
36599;SDS011;35385;55.668;37.508;2023-02-03T05:51:10;50.55;;;24.95;;
36599;SDS011;35385;55.668;37.508;2023-02-03T05:52:11;40.83;;;23.03;;
36599;SDS011;35385;55.668;37.508;2023-02-03T05:53:11;46.07;;;24.27;;
36599;SDS011;35385;55.668;37.508;2023-02-03T05:54:12;48.97;;;24.83;;
36599;SDS011;35385;55.668;37.508;2023-02-03T05:55:13;46.03;;;23.97;;
36599;SDS011;35385;55.668;37.508;2023-02-03T05:56:13;43.00;;;22.63;;
36599;SDS011;35385;55.668;37.508;2023-02-03T05:57:14;45.97;;;23.30;;
36599;SDS011;35385;55.668;37.508;2023-02-03T05:58:14;51.17;;;24.63;;
36599;SDS011;35385;55.668;37.508;2023-02-03T05:59:15;47.23;;;23.87;;
36599;SDS011;35385;55.668;37.508;2023-02-03T06:00:15;45.43;;;23.33;;
36599;SDS011;35385;55.668;37.508;2023-02-03T06:01:16;46.03;;;23.02;;
36599;SDS011;35385;55.668;37.508;2023-02-03T06:03:18;49.28;;;23.15;;
36599;SDS011;35385;55.668;37.508;2023-02-03T06:04:19;42.97;;;22.97;;
36599;SDS011;35385;55.668;37.508;2023-02-03T06:05:20;39.20;;;21.17;;
36599;SDS011;35385;55.668;37.508;2023-02-03T06:06:21;43.40;;;21.63;;
36599;SDS011;35385;55.668;37.508;2023-02-03T06:07:23;39.92;;;22.15;;
36599;SDS011;35385;55.668;37.508;2023-02-03T06:08:24;46.77;;;22.57;;
36599;SDS011;35385;55.668;37.508;2023-02-03T06:09:27;38.40;;;20.60;;
36599;SDS011;35385;55.668;37.508;2023-02-03T06:10:28;38.80;;;20.83;;
36599;SDS011;35385;55.668;37.508;2023-02-03T06:11:28;37.90;;;20.67;;
36599;SDS011;35385;55.668;37.508;2023-02-03T06:12:29;38.83;;;20.90;;
36599;SDS011;35385;55.668;37.508;2023-02-03T06:13:30;35.10;;;19.63;;
36599;SDS011;35385;55.668;37.508;2023-02-03T06:14:30;36.43;;;20.60;;
36599;SDS011;35385;55.668;37.508;2023-02-03T06:15:31;37.60;;;20.00;;
36599;SDS011;35385;55.668;37.508;2023-02-03T06:16:31;40.33;;;21.40;;
36599;SDS011;35385;55.668;37.508;2023-02-03T06:17:32;37.73;;;20.77;;
36599;SDS011;35385;55.668;37.508;2023-02-03T06:18:33;39.20;;;21.00;;
36599;SDS011;35385;55.668;37.508;2023-02-03T06:19:33;48.13;;;22.87;;
36599;SDS011;35385;55.668;37.508;2023-02-03T06:20:34;37.33;;;20.47;;
36599;SDS011;35385;55.668;37.508;2023-02-03T06:21:34;35.47;;;20.93;;
36599;SDS011;35385;55.668;37.508;2023-02-03T06:22:35;40.23;;;21.27;;
36599;SDS011;35385;55.668;37.508;2023-02-03T06:23:36;40.00;;;20.90;;
36599;SDS011;35385;55.668;37.508;2023-02-03T06:24:36;37.40;;;20.73;;
36599;SDS011;35385;55.668;37.508;2023-02-03T06:25:37;38.63;;;20.83;;
36599;SDS011;35385;55.668;37.508;2023-02-03T06:26:37;43.23;;;22.37;;
36599;SDS011;35385;55.668;37.508;2023-02-03T06:27:38;41.40;;;22.53;;
36599;SDS011;35385;55.668;37.508;2023-02-03T06:28:38;41.40;;;22.03;;
36599;SDS011;35385;55.668;37.508;2023-02-03T06:29:39;40.70;;;21.27;;
36599;SDS011;35385;55.668;37.508;2023-02-03T06:30:41;41.22;;;21.40;;
36599;SDS011;35385;55.668;37.508;2023-02-03T06:31:45;34.75;;;20.42;;
36599;SDS011;35385;55.668;37.508;2023-02-03T06:32:46;38.57;;;21.10;;
36599;SDS011;35385;55.668;37.508;2023-02-03T06:33:47;41.63;;;21.90;;
36599;SDS011;35385;55.668;37.508;2023-02-03T06:34:48;40.43;;;22.17;;
36599;SDS011;35385;55.668;37.508;2023-02-03T06:35:48;41.20;;;21.20;;
36599;SDS011;35385;55.668;37.508;2023-02-03T06:36:51;40.30;;;21.70;;
36599;SDS011;35385;55.668;37.508;2023-02-03T06:37:51;35.93;;;20.63;;